SBCTSBGO

Guest
Details From SBCT - Afonso Pena
To SBGO - Santo Genoveva
Flight Number -
Tags Generated
Created
Modified
Stats Distance 535 nm / 990 km
Max Altitude 0 ft / 0 m
Waypoints 3
Social Downloads 4
Likes 0
Share VATSIM

Download

Looking for another format? Having issues loading an existing format? Contact us
Advertisement - Login to hide

Notes

Generated

Route

SBCT GOI SBGO

ID Type Via Altitude Latitude Longitude Leg Dist Tot Dist Heading (true) Name
O SBCT APT - 0 ft / 0 m -25.52836˚ -49.18010˚ - 0 nm - -
GOI NDB - 0 ft / 0 m -16.63720˚ -49.22439˚ 533 nm 533 nm 360° / 360° GOIANIA NDB
O SBGO APT - 0 ft / 0 m -16.62634˚ -49.23081˚ 0 nm 534 nm 330° / 330° -

Altitude Profile

Advertisement - Login to hide

Weather


0- 5 10 15 20 25 30 35+ Temperature / ° C

Clouds and Precipitation
Forecast for 2017-12-18 00:00 UTC. Updated 11 minutes ago

Ground ~20,000 ft ~40,000 ft Winds

SBCT

Details ICAO SBCT (CWB)
Name Afonso Pena
Region Brazil
Timezone America/Sao_Paulo (UTC-2.0)
Stats Elevation 2,988 ft / 911 m (AMSL)
Location -25.528885° -49.173062°
Runways 2
Magnetic Variation 19.614° W

METAR

SBCT 172315Z 10008KT 9999 -TSRA FEW009 FEW040CB BKN100 19/16 Q1 019 RERA

Decode

TAF

TAF SBCT 171430Z 1718/1818 34008KT 9999 SCT030 TX31/1718Z TN17/1809Z BECMG 1722/1724 03005KT SCT020 BECMG 1800/1802 09006KT BKN011 PROB30 1802/1803 9000 RA BKN008 BECMG 1809/1811 BKN015 BECMG 1813/1815 BKN020 BECMG 1816/1818 SCT025 RMK PER

Decode

Departure Runways

ID Width Length Bearing (true) Bearing (mag) Surface Threshold Offset Overrun Length
11 148 ft / 45 m 5,909 ft / 1,801 m 91.79° 111.40° Asphalt 0 ft / 0 m 0 ft / 0 m
15 148 ft / 45 m 7,290 ft / 2,222 m 134.76° 154.37° Asphalt 0 ft / 0 m 190 ft / 58 m
29 148 ft / 45 m 5,909 ft / 1,801 m 271.78° 291.39° Asphalt 0 ft / 0 m 0 ft / 0 m
33 148 ft / 45 m 7,290 ft / 2,222 m 314.75° 334.36° Asphalt 0 ft / 0 m 185 ft / 56 m

SBGO

Details ICAO SBGO (GYN)
Name Santo Genoveva
Region Brazil
Timezone America/Sao_Paulo (UTC-2.0)
Stats Elevation 2,450 ft / 747 m (AMSL)
Location -16.632032° -49.220686°
Runways 1
Magnetic Variation 20.990° W

METAR

SBGO 172300Z 02003KT 9999 -RA FEW030 OVC070 20/19 Q1018

Decode

TAF

TAF SBGO 171600Z 1718/1818 27007KT 8000 NSC TX27/1718Z TN19/1809Z PROB30 TEMPO 1718/1724 03005KT 4000 TSRA BKN010 FEW040CB BECMG 1800/1802 32005KT BECMG 1809/1811 34007KT RMK PDB

Decode

Destination Runways

ID Width Length Bearing (true) Bearing (mag) Surface Threshold Offset Overrun Length
14 148 ft / 45 m 8,208 ft / 2,502 m 120.42° 141.41° Asphalt 0 ft / 0 m 0 ft / 0 m
32 148 ft / 45 m 8,208 ft / 2,502 m 300.41° 321.40° Asphalt 980 ft / 299 m 0 ft / 0 m

Popular Alternatives